Time;durP1;ratioP1;P1;durP2;ratioP2;P2;SDS_P1;SDS_P2;PMS_P1;PMS_P2;Temp;Humidity;BMP_temperature;BMP_pressure;BME280_temperature;BME280_humidity;BME280_pressure;Samples;Min_cycle;Max_cycle;Signal;HPM_P1;HPM_P2
2023/11/11 00:00:47;;;;;;;0.55;0.32;;;;;;;;;;5098257;28;20048;-85
2023/11/11 00:03:14;;;;;;;0.60;0.40;;;;;;;;;;5097776;28;20048;-85
2023/11/11 00:05:42;;;;;;;0.68;0.47;;;;;;;;;;5098428;28;20052;-85
2023/11/11 00:08:08;;;;;;;0.68;0.50;;;;;;;;;;5096125;28;20111;-82
2023/11/11 00:10:35;;;;;;;1.25;0.70;;;;;;;;;;5075863;28;20119;-82
2023/11/11 00:13:03;;;;;;;0.63;0.63;;;;;;;;;;5083749;28;20032;-83
2023/11/11 00:15:29;;;;;;;0.70;0.57;;;;;;;;;;5087794;28;20107;-83
2023/11/11 00:17:58;;;;;;;1.05;0.65;;;;;;;;;;5086317;28;20032;-83
2023/11/11 00:20:24;;;;;;;0.60;0.60;;;;;;;;;;5088801;28;20045;-84
2023/11/11 00:22:52;;;;;;;0.88;0.60;;;;;;;;;;5097137;28;20040;-85
2023/11/11 00:25:18;;;;;;;0.77;0.73;;;;;;;;;;5098116;28;20024;-87
2023/11/11 00:27:45;;;;;;;1.00;0.90;;;;;;;;;;5097404;28;20061;-85
2023/11/11 00:30:11;;;;;;;1.15;0.43;;;;;;;;;;5088941;28;20020;-86
2023/11/11 00:32:38;;;;;;;0.60;0.50;;;;;;;;;;5097343;28;20013;-85
2023/11/11 00:35:08;;;;;;;1.45;0.40;;;;;;;;;;5098013;28;20080;-85
2023/11/11 00:37:34;;;;;;;0.50;0.50;;;;;;;;;;5097086;28;20031;-84
2023/11/11 00:40:01;;;;;;;0.52;0.50;;;;;;;;;;5097364;28;20013;-84
2023/11/11 00:42:27;;;;;;;0.68;0.50;;;;;;;;;;5096034;28;20025;-83
2023/11/11 00:44:53;;;;;;;0.50;0.50;;;;;;;;;;5082576;28;20055;-84
2023/11/11 00:47:19;;;;;;;0.40;0.40;;;;;;;;;;5073243;28;20043;-85
2023/11/11 00:49:49;;;;;;;0.80;0.50;;;;;;;;;;5072978;28;20021;-85
2023/11/11 00:52:16;;;;;;;0.70;0.38;;;;;;;;;;5072240;28;20017;-84
2023/11/11 00:54:42;;;;;;;0.63;0.40;;;;;;;;;;5082298;28;20085;-83
2023/11/11 00:57:08;;;;;;;1.92;0.60;;;;;;;;;;5084974;28;20020;-84
2023/11/11 00:59:35;;;;;;;0.80;0.40;;;;;;;;;;5077946;28;20052;-85
2023/11/11 01:02:01;;;;;;;0.95;0.55;;;;;;;;;;5084077;28;20059;-83
2023/11/11 01:04:28;;;;;;;1.20;0.60;;;;;;;;;;5086631;28;20031;-85
2023/11/11 01:06:54;;;;;;;1.98;0.85;;;;;;;;;;5094929;28;20123;-85
2023/11/11 01:09:20;;;;;;;0.82;0.43;;;;;;;;;;5089327;28;20016;-84
2023/11/11 01:11:47;;;;;;;0.30;0.30;;;;;;;;;;5096352;28;20024;-84
2023/11/11 01:14:13;;;;;;;0.50;0.30;;;;;;;;;;5087212;28;20054;-84
2023/11/11 01:16:39;;;;;;;0.30;0.30;;;;;;;;;;5092727;28;20050;-84
2023/11/11 01:19:05;;;;;;;0.50;0.32;;;;;;;;;;5083469;28;20020;-84
2023/11/11 01:21:32;;;;;;;0.40;0.38;;;;;;;;;;5094325;28;20028;-84
2023/11/11 01:23:58;;;;;;;0.52;0.30;;;;;;;;;;5093763;28;20051;-83
2023/11/11 01:26:24;;;;;;;0.43;0.30;;;;;;;;;;5084551;28;20024;-84
2023/11/11 01:28:51;;;;;;;0.30;0.30;;;;;;;;;;5098550;28;20440;-84
2023/11/11 01:31:17;;;;;;;0.60;0.30;;;;;;;;;;5098117;28;20025;-84
2023/11/11 01:33:43;;;;;;;1.52;0.60;;;;;;;;;;5092701;28;20044;-84
2023/11/11 01:36:09;;;;;;;0.88;0.50;;;;;;;;;;5098372;28;20021;-84
2023/11/11 01:38:35;;;;;;;1.30;0.50;;;;;;;;;;5094337;28;20486;-84
2023/11/11 01:41:05;;;;;;;0.50;0.50;;;;;;;;;;5083195;28;20013;-84
2023/11/11 01:43:31;;;;;;;0.85;0.63;;;;;;;;;;5096184;28;20048;-84
2023/11/11 01:45:59;;;;;;;0.77;0.55;;;;;;;;;;5094734;28;20092;-84
2023/11/11 01:48:26;;;;;;;0.40;0.40;;;;;;;;;;5083867;28;20012;-83
2023/11/11 01:50:53;;;;;;;1.42;0.47;;;;;;;;;;5084549;28;20021;-83
2023/11/11 01:53:19;;;;;;;0.30;0.30;;;;;;;;;;5089092;28;20029;-84
2023/11/11 01:55:47;;;;;;;0.38;0.22;;;;;;;;;;5084483;28;20031;-83
2023/11/11 01:58:13;;;;;;;0.20;0.20;;;;;;;;;;5076224;28;20494;-83
2023/11/11 02:00:40;;;;;;;0.10;0.10;;;;;;;;;;5081932;28;20034;-83
2023/11/11 02:03:06;;;;;;;0.77;0.45;;;;;;;;;;5085730;28;20029;-83
2023/11/11 02:05:33;;;;;;;0.63;0.32;;;;;;;;;;5085462;28;20021;-83
2023/11/11 02:08:01;;;;;;;4.50;0.30;;;;;;;;;;5076269;28;20036;-82
2023/11/11 02:10:27;;;;;;;0.52;0.20;;;;;;;;;;5083110;28;20040;-83
2023/11/11 02:12:56;;;;;;;0.28;0.20;;;;;;;;;;5079537;28;20045;-83
2023/11/11 02:15:22;;;;;;;1.05;0.38;;;;;;;;;;5074704;28;20123;-83
2023/11/11 02:18:09;;;;;;;3.25;0.60;;;;;;;;;;5078271;28;20035;-82
2023/11/11 02:20:35;;;;;;;0.60;0.35;;;;;;;;;;5092517;28;20017;-83
2023/11/11 02:23:02;;;;;;;0.43;0.28;;;;;;;;;;5082038;28;20175;-84
2023/11/11 02:25:28;;;;;;;0.93;0.30;;;;;;;;;;5077609;28;20390;-83
2023/11/11 02:27:55;;;;;;;0.20;0.20;;;;;;;;;;5079551;28;20021;-83
2023/11/11 02:30:21;;;;;;;0.65;0.30;;;;;;;;;;5073091;28;20028;-83
2023/11/11 02:32:48;;;;;;;0.45;0.20;;;;;;;;;;5078050;28;20055;-84
2023/11/11 02:35:14;;;;;;;0.10;0.10;;;;;;;;;;5078067;28;20021;-83
2023/11/11 02:37:40;;;;;;;0.40;0.20;;;;;;;;;;5080034;28;20021;-83
2023/11/11 02:40:12;;;;;;;0.10;0.10;;;;;;;;;;5077509;28;20029;-84
2023/11/11 02:42:42;;;;;;;0.30;0.30;;;;;;;;;;5078054;28;20024;-84
2023/11/11 02:45:08;;;;;;;0.57;0.22;;;;;;;;;;5079108;28;20044;-84
2023/11/11 02:47:34;;;;;;;0.10;0.10;;;;;;;;;;5084606;28;20024;-82
2023/11/11 02:50:01;;;;;;;0.45;0.20;;;;;;;;;;5080561;28;20048;-84
2023/11/11 02:52:27;;;;;;;0.15;0.15;;;;;;;;;;5080660;28;20025;-84
2023/11/11 02:54:53;;;;;;;0.10;0.10;;;;;;;;;;5079086;28;20398;-84
2023/11/11 02:57:19;;;;;;;0.13;0.10;;;;;;;;;;5079726;28;20035;-83
2023/11/11 02:59:45;;;;;;;0.20;0.15;;;;;;;;;;5092434;28;20361;-84
2023/11/11 03:02:11;;;;;;;0.10;0.10;;;;;;;;;;5097818;28;20048;-85
2023/11/11 03:04:38;;;;;;;0.65;0.25;;;;;;;;;;5098026;28;20017;-83
2023/11/11 03:07:04;;;;;;;0.10;0.10;;;;;;;;;;5090678;28;20035;-82
2023/11/11 03:09:34;;;;;;;0.30;0.20;;;;;;;;;;5098971;28;20047;-83
2023/11/11 03:12:01;;;;;;;0.22;0.22;;;;;;;;;;5099684;28;20013;-83
2023/11/11 03:14:27;;;;;;;0.10;0.10;;;;;;;;;;5100064;28;20012;-84
2023/11/11 03:16:53;;;;;;;0.10;0.10;;;;;;;;;;5063402;28;20048;-84
2023/11/11 03:19:19;;;;;;;0.70;0.17;;;;;;;;;;5080603;28;20030;-84
2023/11/11 03:21:45;;;;;;;0.20;0.20;;;;;;;;;;5079961;28;20092;-84
2023/11/11 03:24:15;;;;;;;0.40;0.00;;;;;;;;;;5084408;28;20033;-83
2023/11/11 03:26:41;;;;;;;0.20;0.20;;;;;;;;;;5085927;28;20024;-84
2023/11/11 03:29:07;;;;;;;0.10;0.10;;;;;;;;;;5104569;28;20075;-85
2023/11/11 03:31:33;;;;;;;0.10;0.10;;;;;;;;;;5102479;28;20031;-84
2023/11/11 03:34:02;;;;;;;1.38;0.13;;;;;;;;;;5081508;28;20032;-84
2023/11/11 03:36:28;;;;;;;0.43;0.10;;;;;;;;;;5103307;28;20020;-84
2023/11/11 03:38:54;;;;;;;0.00;0.00;;;;;;;;;;5104982;28;20024;-83
2023/11/11 03:41:20;;;;;;;0.10;0.10;;;;;;;;;;5081316;28;20430;-83
2023/11/11 03:43:46;;;;;;;0.08;0.00;;;;;;;;;;5088451;28;20151;-84
2023/11/11 03:46:12;;;;;;;0.10;0.10;;;;;;;;;;5074333;28;20176;-83
2023/11/11 03:48:39;;;;;;;3.40;0.10;;;;;;;;;;5074143;28;20103;-84
2023/11/11 03:51:05;;;;;;;0.00;0.00;;;;;;;;;;5076653;28;20071;-84
2023/11/11 03:53:31;;;;;;;0.03;0.00;;;;;;;;;;5076165;28;20104;-84
2023/11/11 03:55:57;;;;;;;0.10;0.10;;;;;;;;;;5077815;28;20025;-84
2023/11/11 03:58:23;;;;;;;0.50;0.13;;;;;;;;;;5077735;28;20020;-84
2023/11/11 04:00:50;;;;;;;0.45;0.30;;;;;;;;;;5077155;28;20104;-83
2023/11/11 04:03:16;;;;;;;0.00;0.00;;;;;;;;;;5075799;28;20084;-85
2023/11/11 04:05:42;;;;;;;0.00;0.00;;;;;;;;;;5076163;28;20021;-84
2023/11/11 04:08:08;;;;;;;0.20;0.20;;;;;;;;;;5093273;28;20127;-84
2023/11/11 04:10:34;;;;;;;0.17;0.10;;;;;;;;;;5077550;28;20032;-79
2023/11/11 04:13:00;;;;;;;0.98;0.38;;;;;;;;;;5068469;28;20067;-79
2023/11/11 04:15:27;;;;;;;0.43;0.00;;;;;;;;;;5074170;28;20032;-78
2023/11/11 04:17:53;;;;;;;0.30;0.13;;;;;;;;;;5069302;28;20021;-79
2023/11/11 04:20:19;;;;;;;0.10;0.10;;;;;;;;;;5073983;28;20070;-80
2023/11/11 04:22:45;;;;;;;0.00;0.00;;;;;;;;;;5069494;28;20024;-80
2023/11/11 04:25:11;;;;;;;0.10;0.10;;;;;;;;;;5070314;28;20108;-80
2023/11/11 04:27:38;;;;;;;0.15;0.00;;;;;;;;;;5071982;28;20024;-80
2023/11/11 04:30:06;;;;;;;0.00;0.00;;;;;;;;;;5069960;28;20013;-80
2023/11/11 04:32:32;;;;;;;0.10;0.10;;;;;;;;;;5073635;28;20032;-81
2023/11/11 04:34:59;;;;;;;0.10;0.10;;;;;;;;;;5069491;28;20029;-80
2023/11/11 04:37:25;;;;;;;0.08;0.08;;;;;;;;;;5083264;28;20058;-81
2023/11/11 04:39:57;;;;;;;0.00;0.00;;;;;;;;;;5078682;28;20028;-79
2023/11/11 04:42:24;;;;;;;0.63;0.20;;;;;;;;;;5068420;28;20020;-82
2023/11/11 04:44:53;;;;;;;0.10;0.10;;;;;;;;;;5080292;28;20032;-84
2023/11/11 04:47:23;;;;;;;0.13;0.10;;;;;;;;;;5084246;28;20027;-82
2023/11/11 04:49:49;;;;;;;0.50;0.20;;;;;;;;;;5069390;28;20021;-82
2023/11/11 04:52:16;;;;;;;0.28;0.03;;;;;;;;;;5079455;28;20028;-81
2023/11/11 04:54:42;;;;;;;0.20;0.10;;;;;;;;;;5074169;28;20029;-81
2023/11/11 04:57:09;;;;;;;0.10;0.10;;;;;;;;;;5074385;28;20039;-82
2023/11/11 04:59:35;;;;;;;0.10;0.10;;;;;;;;;;5077142;28;20024;-80
2023/11/11 05:02:02;;;;;;;0.13;0.10;;;;;;;;;;5089360;28;20030;-80
2023/11/11 05:04:28;;;;;;;0.10;0.10;;;;;;;;;;5086098;28;20035;-81
2023/11/11 05:06:54;;;;;;;0.20;0.20;;;;;;;;;;5091868;28;20379;-81
2023/11/11 05:09:20;;;;;;;0.10;0.10;;;;;;;;;;5089381;28;20024;-81
2023/11/11 05:11:47;;;;;;;1.40;0.20;;;;;;;;;;5088167;28;20020;-81
2023/11/11 05:14:17;;;;;;;0.17;0.17;;;;;;;;;;5087284;28;20086;-80
2023/11/11 05:16:44;;;;;;;0.13;0.10;;;;;;;;;;5086363;28;20024;-81
2023/11/11 05:19:10;;;;;;;0.10;0.10;;;;;;;;;;5088848;28;20039;-80
2023/11/11 05:21:37;;;;;;;0.10;0.10;;;;;;;;;;5093639;28;20037;-80
2023/11/11 05:24:03;;;;;;;0.35;0.10;;;;;;;;;;5091491;28;20043;-79
2023/11/11 05:26:30;;;;;;;0.40;0.10;;;;;;;;;;5084660;28;20025;-80
2023/11/11 05:28:56;;;;;;;0.35;0.20;;;;;;;;;;5084726;28;20085;-82
2023/11/11 05:31:23;;;;;;;0.55;0.20;;;;;;;;;;5088507;28;20024;-80
2023/11/11 05:33:50;;;;;;;0.10;0.10;;;;;;;;;;5086821;28;20048;-81
2023/11/11 05:36:19;;;;;;;0.10;0.10;;;;;;;;;;5087024;28;20028;-81
2023/11/11 05:38:46;;;;;;;1.27;0.10;;;;;;;;;;5085789;28;20034;-81
2023/11/11 05:41:12;;;;;;;0.10;0.10;;;;;;;;;;5085037;28;20032;-80
2023/11/11 05:43:38;;;;;;;0.20;0.20;;;;;;;;;;5077149;28;20024;-78
2023/11/11 05:46:05;;;;;;;0.10;0.10;;;;;;;;;;5086108;28;20029;-80
2023/11/11 05:48:31;;;;;;;0.35;0.30;;;;;;;;;;5092441;28;20017;-80
2023/11/11 05:50:57;;;;;;;0.47;0.20;;;;;;;;;;5071449;28;20040;-83
2023/11/11 05:53:23;;;;;;;0.40;0.38;;;;;;;;;;5079670;28;20028;-82
2023/11/11 05:55:50;;;;;;;0.10;0.10;;;;;;;;;;5076158;28;20024;-82
2023/11/11 05:58:16;;;;;;;0.68;0.28;;;;;;;;;;5085384;28;20051;-81
2023/11/11 06:00:42;;;;;;;0.20;0.20;;;;;;;;;;5080831;28;20036;-85
2023/11/11 06:03:08;;;;;;;0.20;0.20;;;;;;;;;;5083220;28;20032;-82
2023/11/11 06:05:36;;;;;;;0.13;0.13;;;;;;;;;;5079916;28;20025;-82
2023/11/11 06:08:03;;;;;;;0.40;0.30;;;;;;;;;;5080951;28;20025;-82
2023/11/11 06:10:29;;;;;;;0.50;0.50;;;;;;;;;;5078877;28;20048;-81
2023/11/11 06:12:57;;;;;;;1.20;0.50;;;;;;;;;;5089002;28;20029;-82
2023/11/11 06:15:24;;;;;;;1.00;0.35;;;;;;;;;;5087625;28;20025;-82
2023/11/11 06:17:50;;;;;;;1.02;0.40;;;;;;;;;;5097180;28;20037;-84
2023/11/11 06:20:17;;;;;;;0.77;0.38;;;;;;;;;;5094069;28;20039;-83
2023/11/11 06:22:43;;;;;;;0.63;0.63;;;;;;;;;;5096795;28;20019;-83
2023/11/11 06:25:09;;;;;;;2.90;0.40;;;;;;;;;;5091379;28;20055;-82
2023/11/11 06:27:35;;;;;;;0.70;0.60;;;;;;;;;;5093073;28;20040;-83
2023/11/11 06:30:01;;;;;;;0.93;0.70;;;;;;;;;;5091874;28;20025;-82
2023/11/11 06:32:28;;;;;;;0.65;0.40;;;;;;;;;;5086742;28;20028;-83
2023/11/11 06:34:54;;;;;;;0.80;0.52;;;;;;;;;;5097011;28;20029;-83
2023/11/11 06:37:20;;;;;;;1.20;0.90;;;;;;;;;;5087563;28;20088;-82
2023/11/11 06:39:46;;;;;;;0.80;0.80;;;;;;;;;;5087826;28;20116;-82
2023/11/11 06:42:12;;;;;;;1.95;0.77;;;;;;;;;;5096328;28;20021;-82
2023/11/11 06:44:38;;;;;;;0.65;0.50;;;;;;;;;;5096306;28;20861;-81
2023/11/11 06:47:05;;;;;;;1.58;0.75;;;;;;;;;;5102059;28;20088;-81
2023/11/11 06:49:31;;;;;;;0.73;0.55;;;;;;;;;;5094392;28;20048;-82
2023/11/11 06:51:57;;;;;;;1.55;0.68;;;;;;;;;;5101857;28;20444;-81
2023/11/11 06:54:23;;;;;;;1.33;0.80;;;;;;;;;;5081223;28;20031;-82
2023/11/11 06:56:49;;;;;;;6.65;0.77;;;;;;;;;;5085574;28;20086;-82
2023/11/11 06:59:15;;;;;;;0.95;0.60;;;;;;;;;;5081849;28;20028;-83
2023/11/11 07:01:41;;;;;;;0.60;0.60;;;;;;;;;;5074326;28;20032;-80
2023/11/11 07:04:07;;;;;;;0.50;0.50;;;;;;;;;;5067225;28;20029;-79
2023/11/11 07:06:33;;;;;;;1.45;0.60;;;;;;;;;;5087337;28;20015;-83
2023/11/11 07:09:00;;;;;;;2.28;0.80;;;;;;;;;;5092921;28;20028;-81
2023/11/11 07:11:26;;;;;;;1.35;0.50;;;;;;;;;;5082024;28;20550;-80
2023/11/11 07:13:53;;;;;;;2.55;0.30;;;;;;;;;;5083372;28;20407;-80
2023/11/11 07:16:19;;;;;;;1.08;0.50;;;;;;;;;;5084772;28;20398;-80
2023/11/11 07:18:46;;;;;;;0.60;0.60;;;;;;;;;;5081606;28;20413;-81
2023/11/11 07:21:22;;;;;;;0.60;0.52;;;;;;;;;;5078216;28;20028;-82
2023/11/11 07:23:52;;;;;;;1.00;0.50;;;;;;;;;;5084906;28;20033;-82
2023/11/11 07:26:19;;;;;;;1.20;0.50;;;;;;;;;;5078687;28;20037;-83
2023/11/11 07:28:45;;;;;;;2.28;0.68;;;;;;;;;;5066740;28;20077;-82
2023/11/11 07:31:23;;;;;;;1.05;0.57;;;;;;;;;;5072303;28;20029;-81
2023/11/11 07:33:51;;;;;;;1.63;0.70;;;;;;;;;;5078382;28;20044;-82
2023/11/11 07:36:17;;;;;;;3.55;0.70;;;;;;;;;;5080493;28;20036;-80
2023/11/11 07:38:46;;;;;;;0.40;0.40;;;;;;;;;;5066655;28;20058;-83
2023/11/11 07:41:12;;;;;;;2.85;0.85;;;;;;;;;;5078171;28;20027;-82
2023/11/11 07:43:38;;;;;;;0.50;0.50;;;;;;;;;;5079308;28;20394;-82
2023/11/11 07:46:05;;;;;;;1.85;0.80;;;;;;;;;;5074877;28;20024;-80
2023/11/11 07:48:32;;;;;;;1.50;0.90;;;;;;;;;;5087541;28;20471;-80
2023/11/11 07:50:58;;;;;;;1.20;0.60;;;;;;;;;;5078317;28;20024;-82
2023/11/11 07:53:24;;;;;;;1.73;0.88;;;;;;;;;;5076896;28;20051;-83
2023/11/11 07:55:50;;;;;;;3.58;0.70;;;;;;;;;;5077904;28;20036;-80
2023/11/11 07:58:16;;;;;;;1.30;1.10;;;;;;;;;;5065554;28;20025;-81
2023/11/11 08:00:42;;;;;;;1.20;0.85;;;;;;;;;;5080086;28;20028;-82
2023/11/11 08:03:10;;;;;;;1.67;0.80;;;;;;;;;;5073334;28;20107;-81
2023/11/11 08:05:37;;;;;;;0.60;0.60;;;;;;;;;;5079234;28;20043;-82
2023/11/11 08:08:03;;;;;;;5.80;1.25;;;;;;;;;;5080489;28;20028;-83
2023/11/11 08:10:31;;;;;;;1.70;0.60;;;;;;;;;;5083070;28;20134;-81
2023/11/11 08:12:57;;;;;;;1.35;0.85;;;;;;;;;;5079628;28;20029;-82
2023/11/11 08:15:23;;;;;;;2.05;0.65;;;;;;;;;;5081903;28;20034;-81
2023/11/11 08:17:49;;;;;;;0.50;0.50;;;;;;;;;;5075236;28;20048;-83
2023/11/11 08:20:16;;;;;;;1.45;0.50;;;;;;;;;;5073605;28;20083;-84
2023/11/11 08:22:47;;;;;;;3.63;0.98;;;;;;;;;;5092105;28;20021;-81
2023/11/11 08:25:13;;;;;;;0.82;0.30;;;;;;;;;;5082179;28;20052;-82
2023/11/11 08:27:43;;;;;;;1.85;0.52;;;;;;;;;;5075887;28;20021;-82
2023/11/11 08:30:13;;;;;;;1.20;0.60;;;;;;;;;;5068690;28;20021;-83
2023/11/11 08:32:42;;;;;;;0.70;0.57;;;;;;;;;;5083285;28;20017;-82
2023/11/11 08:35:15;;;;;;;3.28;0.75;;;;;;;;;;5080355;28;20080;-82
2023/11/11 08:37:43;;;;;;;1.05;0.52;;;;;;;;;;5082408;28;20040;-83
2023/11/11 08:40:10;;;;;;;1.35;0.52;;;;;;;;;;5085638;28;20048;-80
2023/11/11 08:42:36;;;;;;;2.20;0.60;;;;;;;;;;5086275;28;20074;-82
2023/11/11 08:45:02;;;;;;;0.90;0.50;;;;;;;;;;5084364;28;20028;-82
2023/11/11 08:47:28;;;;;;;1.27;0.80;;;;;;;;;;5081132;28;20035;-82
2023/11/11 08:49:55;;;;;;;0.80;0.35;;;;;;;;;;5081140;28;20577;-83
2023/11/11 08:52:22;;;;;;;0.52;0.35;;;;;;;;;;5089753;28;20025;-82
2023/11/11 08:54:50;;;;;;;1.40;0.70;;;;;;;;;;5080007;28;20088;-81
2023/11/11 08:57:16;;;;;;;0.65;0.50;;;;;;;;;;5077848;28;20031;-82
2023/11/11 08:59:42;;;;;;;0.85;0.52;;;;;;;;;;5073921;28;20025;-83
2023/11/11 09:02:09;;;;;;;0.40;0.35;;;;;;;;;;5076582;28;20032;-84
2023/11/11 09:04:35;;;;;;;3.30;0.50;;;;;;;;;;5080906;28;20100;-82
2023/11/11 09:07:02;;;;;;;0.40;0.40;;;;;;;;;;5094568;28;20028;-85
2023/11/11 09:09:29;;;;;;;1.10;0.60;;;;;;;;;;5083081;28;20295;-83
2023/11/11 09:11:56;;;;;;;1.52;0.70;;;;;;;;;;5082400;28;20523;-82
2023/11/11 09:14:22;;;;;;;1.38;0.43;;;;;;;;;;5066616;28;20028;-81
2023/11/11 09:16:48;;;;;;;1.15;0.50;;;;;;;;;;5067739;28;20028;-82
2023/11/11 09:19:15;;;;;;;0.73;0.40;;;;;;;;;;5084561;28;20080;-83
2023/11/11 09:21:41;;;;;;;1.23;0.50;;;;;;;;;;5080119;28;20021;-82
2023/11/11 09:24:07;;;;;;;2.05;0.80;;;;;;;;;;5084056;28;20079;-83
2023/11/11 09:26:35;;;;;;;1.38;0.55;;;;;;;;;;5092896;28;20025;-83
2023/11/11 09:29:01;;;;;;;0.90;0.52;;;;;;;;;;5083609;28;20025;-82
2023/11/11 09:31:30;;;;;;;0.52;0.40;;;;;;;;;;5099051;28;20031;-84
2023/11/11 09:34:00;;;;;;;0.63;0.45;;;;;;;;;;5100001;28;20021;-82
2023/11/11 09:36:27;;;;;;;3.35;0.52;;;;;;;;;;5097653;28;20064;-82
2023/11/11 09:38:53;;;;;;;1.33;0.47;;;;;;;;;;5094295;28;20104;-83
2023/11/11 09:41:19;;;;;;;1.00;0.45;;;;;;;;;;5095700;28;20024;-83
2023/11/11 09:43:45;;;;;;;0.73;0.35;;;;;;;;;;5102789;28;20061;-80
2023/11/11 09:46:15;;;;;;;0.68;0.52;;;;;;;;;;5109374;28;20033;-84
2023/11/11 09:48:41;;;;;;;1.15;0.40;;;;;;;;;;5086722;28;20025;-81
2023/11/11 09:51:08;;;;;;;0.80;0.47;;;;;;;;;;5089498;28;20072;-83
2023/11/11 09:53:34;;;;;;;0.60;0.45;;;;;;;;;;5083086;28;20021;-81
2023/11/11 09:56:01;;;;;;;0.80;0.60;;;;;;;;;;5071198;28;20063;-81
2023/11/11 09:58:29;;;;;;;0.45;0.45;;;;;;;;;;5075446;28;20055;-82
2023/11/11 10:00:55;;;;;;;3.10;0.65;;;;;;;;;;5080072;28;20024;-82
2023/11/11 10:03:22;;;;;;;1.65;0.68;;;;;;;;;;5081664;28;20138;-81
2023/11/11 10:05:48;;;;;;;0.73;0.50;;;;;;;;;;5085129;28;20085;-81
2023/11/11 10:08:14;;;;;;;2.38;1.45;;;;;;;;;;5074426;28;20088;-81
2023/11/11 10:10:41;;;;;;;0.57;0.40;;;;;;;;;;5077552;28;20030;-83
2023/11/11 10:13:07;;;;;;;2.00;0.70;;;;;;;;;;5085264;28;20064;-83
2023/11/11 10:15:33;;;;;;;1.67;0.80;;;;;;;;;;5086096;28;20415;-82
2023/11/11 10:18:03;;;;;;;0.52;0.50;;;;;;;;;;5086948;28;20029;-80
2023/11/11 10:20:30;;;;;;;2.85;0.77;;;;;;;;;;5059360;28;20029;-81
2023/11/11 10:22:58;;;;;;;1.02;0.70;;;;;;;;;;5086765;28;20401;-82
2023/11/11 10:25:24;;;;;;;1.80;0.80;;;;;;;;;;5088424;28;20684;-81
2023/11/11 10:27:59;;;;;;;1.08;0.60;;;;;;;;;;5085207;28;20081;-84
2023/11/11 10:30:26;;;;;;;0.93;0.40;;;;;;;;;;5089604;28;20024;-83
2023/11/11 10:32:52;;;;;;;1.38;0.75;;;;;;;;;;5087095;28;20064;-83
2023/11/11 10:35:19;;;;;;;1.98;0.65;;;;;;;;;;5089690;28;20112;-82
2023/11/11 10:37:47;;;;;;;0.73;0.50;;;;;;;;;;5079246;28;20451;-83
2023/11/11 10:40:16;;;;;;;1.83;0.60;;;;;;;;;;5076274;28;20039;-82
2023/11/11 10:42:46;;;;;;;2.17;0.50;;;;;;;;;;5077374;28;20021;-81
2023/11/11 10:45:15;;;;;;;0.85;0.70;;;;;;;;;;5083878;28;20028;-82
2023/11/11 10:47:41;;;;;;;3.33;1.00;;;;;;;;;;5076326;28;20021;-81
2023/11/11 10:50:07;;;;;;;1.08;0.55;;;;;;;;;;5084490;28;20031;-82
2023/11/11 10:52:37;;;;;;;0.60;0.40;;;;;;;;;;5083311;28;20064;-82
2023/11/11 10:55:07;;;;;;;1.88;0.65;;;;;;;;;;5087126;28;20032;-83
2023/11/11 10:57:33;;;;;;;1.77;0.50;;;;;;;;;;5086612;28;20016;-81
2023/11/11 11:00:00;;;;;;;1.15;1.05;;;;;;;;;;5079519;28;20021;-82
2023/11/11 11:02:26;;;;;;;1.20;0.80;;;;;;;;;;5075367;28;20029;-82
2023/11/11 11:04:57;;;;;;;0.85;0.65;;;;;;;;;;5081205;28;20025;-83
2023/11/11 11:07:26;;;;;;;0.65;0.45;;;;;;;;;;5087401;28;20025;-82
2023/11/11 11:10:07;;;;;;;1.88;0.73;;;;;;;;;;5078541;28;20050;-83
2023/11/11 11:12:54;;;;;;;2.75;0.88;;;;;;;;;;5077829;28;20024;-83
2023/11/11 11:15:20;;;;;;;2.95;0.70;;;;;;;;;;5084015;28;20463;-82
2023/11/11 11:17:51;;;;;;;3.42;0.93;;;;;;;;;;5085195;28;20035;-82
2023/11/11 11:20:24;;;;;;;1.63;0.80;;;;;;;;;;5076745;28;20090;-83
2023/11/11 11:22:52;;;;;;;0.77;0.70;;;;;;;;;;5087744;28;20028;-83
2023/11/11 11:25:34;;;;;;;1.50;0.63;;;;;;;;;;5092157;28;20040;-82
2023/11/11 11:28:14;;;;;;;0.70;0.70;;;;;;;;;;5087104;28;20013;-82
2023/11/11 11:30:43;;;;;;;2.47;0.68;;;;;;;;;;5077374;28;20031;-83
2023/11/11 11:33:14;;;;;;;1.02;0.73;;;;;;;;;;5077031;28;20028;-83
2023/11/11 11:35:43;;;;;;;3.17;0.70;;;;;;;;;;5086066;28;20131;-83
2023/11/11 11:38:10;;;;;;;1.55;0.80;;;;;;;;;;5085765;28;20049;-82
2023/11/11 11:40:37;;;;;;;2.15;0.63;;;;;;;;;;5082441;28;20036;-81
2023/11/11 11:43:09;;;;;;;0.50;0.50;;;;;;;;;;5099117;28;20101;-81
2023/11/11 11:45:36;;;;;;;3.92;0.55;;;;;;;;;;5075612;28;20100;-82
2023/11/11 11:48:02;;;;;;;0.88;0.50;;;;;;;;;;5082512;28;20055;-82
2023/11/11 11:50:28;;;;;;;1.58;1.00;;;;;;;;;;5081422;28;20045;-82
2023/11/11 11:52:54;;;;;;;1.80;0.95;;;;;;;;;;5081783;28;20029;-82
2023/11/11 11:55:22;;;;;;;0.50;0.50;;;;;;;;;;5104196;28;20023;-82
2023/11/11 11:57:57;;;;;;;4.30;0.70;;;;;;;;;;5081977;28;20029;-83
2023/11/11 12:00:24;;;;;;;1.23;0.90;;;;;;;;;;5086549;28;20025;-82
2023/11/11 12:02:53;;;;;;;2.65;0.85;;;;;;;;;;5095277;28;20033;-83
2023/11/11 12:05:19;;;;;;;3.83;0.80;;;;;;;;;;5087646;28;20063;-83
2023/11/11 12:07:51;;;;;;;1.75;0.68;;;;;;;;;;5091063;28;20044;-81
2023/11/11 12:10:18;;;;;;;0.60;0.47;;;;;;;;;;5085209;28;20027;-82
2023/11/11 12:12:44;;;;;;;0.80;0.73;;;;;;;;;;5084801;28;20028;-82
2023/11/11 12:15:11;;;;;;;1.08;0.68;;;;;;;;;;5069891;28;20033;-82
2023/11/11 12:17:42;;;;;;;2.05;1.10;;;;;;;;;;5086417;28;20027;-82
2023/11/11 12:20:08;;;;;;;5.65;5.25;;;;;;;;;;5082675;28;20020;-83
2023/11/11 12:22:35;;;;;;;2.35;2.22;;;;;;;;;;5093878;28;20028;-81
2023/11/11 12:25:01;;;;;;;4.07;2.80;;;;;;;;;;5079337;28;20020;-81
2023/11/11 12:27:28;;;;;;;3.65;1.98;;;;;;;;;;5071632;28;20027;-82
2023/11/11 12:29:57;;;;;;;2.88;1.10;;;;;;;;;;5087087;28;20040;-81
2023/11/11 12:32:23;;;;;;;0.95;0.70;;;;;;;;;;5088282;28;20020;-82
2023/11/11 12:34:51;;;;;;;2.17;0.98;;;;;;;;;;5085902;28;20020;-81
2023/11/11 12:37:20;;;;;;;0.70;0.70;;;;;;;;;;5080566;28;20084;-79
2023/11/11 12:39:50;;;;;;;5.65;0.88;;;;;;;;;;5093433;28;20036;-81
2023/11/11 12:42:17;;;;;;;3.63;1.55;;;;;;;;;;5093684;28;20092;-80
2023/11/11 12:44:44;;;;;;;2.22;0.98;;;;;;;;;;5092055;28;20037;-80
2023/11/11 12:47:10;;;;;;;1.02;0.80;;;;;;;;;;5093360;28;20055;-81
2023/11/11 12:49:37;;;;;;;1.40;0.95;;;;;;;;;;5093530;28;20088;-80
2023/11/11 12:52:13;;;;;;;0.45;0.45;;;;;;;;;;5088769;28;20029;-80
2023/11/11 12:54:40;;;;;;;1.42;0.80;;;;;;;;;;5080907;28;20017;-80
2023/11/11 12:57:07;;;;;;;2.67;1.85;;;;;;;;;;5067931;28;20041;-80
2023/11/11 12:59:33;;;;;;;3.15;2.17;;;;;;;;;;5064058;28;20048;-81
2023/11/11 13:02:00;;;;;;;2.08;1.70;;;;;;;;;;5078399;28;20456;-81
2023/11/11 13:04:28;;;;;;;1.80;1.70;;;;;;;;;;5083870;28;20040;-81
2023/11/11 13:06:54;;;;;;;2.15;0.90;;;;;;;;;;5085294;28;20027;-81
2023/11/11 13:09:22;;;;;;;0.82;0.70;;;;;;;;;;5085587;28;20220;-81
2023/11/11 13:11:48;;;;;;;1.27;0.40;;;;;;;;;;5092563;28;20013;-80
2023/11/11 13:14:14;;;;;;;4.00;0.70;;;;;;;;;;5092704;28;20004;-80
2023/11/11 13:16:43;;;;;;;1.92;0.98;;;;;;;;;;5074828;28;20088;-80
2023/11/11 13:19:10;;;;;;;1.50;0.77;;;;;;;;;;5075518;28;20478;-80
2023/11/11 13:21:38;;;;;;;0.60;0.60;;;;;;;;;;5072392;28;20032;-81
2023/11/11 13:24:06;;;;;;;1.42;1.27;;;;;;;;;;5071155;28;20078;-81
2023/11/11 13:26:32;;;;;;;1.00;0.90;;;;;;;;;;5074918;28;20140;-80
2023/11/11 13:29:02;;;;;;;1.20;1.02;;;;;;;;;;5078942;28;20020;-80
2023/11/11 13:31:29;;;;;;;2.55;2.30;;;;;;;;;;5080028;28;20032;-80
2023/11/11 13:33:56;;;;;;;4.20;3.83;;;;;;;;;;5079971;28;20090;-80
2023/11/11 13:36:34;;;;;;;4.85;4.05;;;;;;;;;;5080539;28;20032;-81
2023/11/11 13:39:00;;;;;;;2.20;2.10;;;;;;;;;;5081312;28;20430;-81
2023/11/11 13:41:34;;;;;;;3.83;1.70;;;;;;;;;;5085093;28;20028;-81
2023/11/11 13:44:00;;;;;;;1.30;1.20;;;;;;;;;;5084694;28;20074;-81
2023/11/11 13:46:26;;;;;;;1.10;0.98;;;;;;;;;;5086191;28;20028;-81
2023/11/11 13:48:56;;;;;;;1.00;0.85;;;;;;;;;;5087502;28;20037;-81
2023/11/11 13:51:23;;;;;;;3.08;1.05;;;;;;;;;;5086547;28;20112;-82
2023/11/11 13:53:55;;;;;;;1.48;0.75;;;;;;;;;;5083138;28;20043;-83
2023/11/11 13:56:21;;;;;;;2.47;1.17;;;;;;;;;;5081500;28;20050;-82
2023/11/11 13:58:51;;;;;;;1.08;0.90;;;;;;;;;;5077360;28;20021;-82
2023/11/11 14:01:17;;;;;;;0.90;0.70;;;;;;;;;;5088046;28;20024;-83
2023/11/11 14:03:44;;;;;;;2.42;0.88;;;;;;;;;;5088159;28;20016;-83
2023/11/11 14:06:10;;;;;;;1.92;1.02;;;;;;;;;;5081748;28;20021;-81
2023/11/11 14:08:37;;;;;;;0.98;0.77;;;;;;;;;;5074451;28;20045;-82
2023/11/11 14:11:06;;;;;;;2.20;0.98;;;;;;;;;;5080764;28;20017;-82
2023/11/11 14:13:32;;;;;;;1.13;0.70;;;;;;;;;;5082911;28;20020;-81
2023/11/11 14:16:00;;;;;;;1.00;0.90;;;;;;;;;;5090732;28;20029;-81
2023/11/11 14:18:26;;;;;;;1.38;0.52;;;;;;;;;;5087082;28;20020;-81
2023/11/11 14:20:59;;;;;;;3.70;1.02;;;;;;;;;;5079824;28;20027;-82
2023/11/11 14:23:25;;;;;;;3.50;1.65;;;;;;;;;;5087512;28;20051;-82
2023/11/11 14:25:52;;;;;;;1.75;0.80;;;;;;;;;;5086185;28;20039;-81
2023/11/11 14:28:18;;;;;;;2.40;0.57;;;;;;;;;;5084231;28;20016;-82
2023/11/11 14:30:45;;;;;;;0.77;0.60;;;;;;;;;;5084235;28;20088;-83
2023/11/11 14:33:11;;;;;;;2.85;0.93;;;;;;;;;;5080309;28;20391;-82
2023/11/11 14:35:37;;;;;;;0.88;0.80;;;;;;;;;;5086198;28;20040;-82
2023/11/11 14:38:04;;;;;;;7.90;3.30;;;;;;;;;;5086520;28;20059;-82
2023/11/11 14:40:30;;;;;;;5.70;4.10;;;;;;;;;;5085969;28;20028;-82
2023/11/11 14:42:58;;;;;;;19.77;11.50;;;;;;;;;;5083492;28;20029;-82